Ponder, Texas
Current Conditions -  °F | °C
As of 1:53 AM on Monday 26 Jan 2015 (Local Time) from KDTO Reporting Station
Clear Clear  
Wind Chill: 37°   Ceiling: Unl
Heat Index: 37°   Visibility: 10mi
Dew Point: 27°   Wind: 3mph
Humidity: 67%   Direction: 320°NW
Pressure: 30.21"   Gusts: NA
Location:  33.18°N, 97.29°W
Report Text: KDTO 260753Z AUTO 32003KT 10SM CLR 03/M03 A3021 RMK AO2 SLP227 T00281028
Loading
Personal Weather Stations






























Interactive Weather Map New forecast layout! Learn more

10-Day Weather Forecast

Advertisements
Track Severe Weather on mobile